createdAt,value
2017-12-10T00:02:02.045Z,99714.36
2017-12-10T00:04:29.436Z,99706.85
2017-12-10T00:06:56.843Z,99708.63
2017-12-10T00:09:24.247Z,99708.22
2017-12-10T00:11:51.641Z,99705.31
2017-12-10T00:14:19.032Z,99697.98
2017-12-10T00:16:46.419Z,99692.98
2017-12-10T00:19:13.818Z,99696.47
2017-12-10T00:21:41.207Z,99685.00
2017-12-10T00:24:08.591Z,99683.12
2017-12-10T00:26:35.983Z,99675.47
2017-12-10T00:29:03.380Z,99665.95
2017-12-10T00:31:30.763Z,99669.58
2017-12-10T00:33:58.151Z,99664.85
2017-12-10T00:36:25.545Z,99661.71
2017-12-10T00:38:52.936Z,99660.39
2017-12-10T00:41:20.342Z,99651.28
2017-12-10T00:43:47.747Z,99641.63
2017-12-10T00:46:15.141Z,99629.96
2017-12-10T00:48:42.540Z,99622.83
2017-12-10T00:51:09.925Z,99616.70
2017-12-10T00:53:37.307Z,99611.33
2017-12-10T00:56:04.694Z,99602.78
2017-12-10T00:58:32.074Z,99606.92
2017-12-10T01:00:59.471Z,99598.39
2017-12-10T01:03:26.856Z,99601.05
2017-12-10T01:05:54.243Z,99604.34
2017-12-10T01:08:21.629Z,99596.77
2017-12-10T01:10:49.023Z,99600.17
2017-12-10T01:13:16.420Z,99583.72
2017-12-10T01:15:43.803Z,99581.16
2017-12-10T01:18:11.221Z,99588.55
2017-12-10T01:20:38.599Z,99579.08
2017-12-10T01:23:05.988Z,99574.27
2017-12-10T01:25:33.395Z,99563.34
2017-12-10T01:28:00.772Z,99564.47
2017-12-10T01:30:28.165Z,99560.58
2017-12-10T01:32:55.557Z,99552.36
2017-12-10T01:35:22.971Z,99550.11
2017-12-10T01:37:50.458Z,99549.20
2017-12-10T01:46:03.610Z,99540.59
2017-12-10T01:48:31.002Z,99535.48
2017-12-10T01:50:58.410Z,99532.16
2017-12-10T01:53:33.003Z,99526.86
2017-12-10T01:56:00.420Z,99522.37
2017-12-10T01:58:27.807Z,99522.22
2017-12-10T02:00:55.200Z,99514.14
2017-12-10T02:03:22.963Z,99513.50
2017-12-10T02:05:50.456Z,99500.99
2017-12-10T02:08:17.886Z,99506.73
2017-12-10T02:10:45.291Z,99492.35
2017-12-10T02:13:12.687Z,99495.33
2017-12-10T02:15:40.075Z,99490.83
2017-12-10T02:18:07.475Z,99491.15
2017-12-10T02:20:34.878Z,99487.19
2017-12-10T02:23:02.279Z,99480.41
2017-12-10T02:25:29.670Z,99476.75
2017-12-10T02:27:57.115Z,99473.32
2017-12-10T02:30:24.512Z,99473.16
2017-12-10T02:32:51.940Z,99466.19
2017-12-10T02:35:19.331Z,99465.44
2017-12-10T02:37:46.735Z,99452.06
2017-12-10T02:40:14.199Z,99459.46
2017-12-10T02:42:41.658Z,99446.94
2017-12-10T02:45:09.039Z,99453.14
2017-12-10T02:47:36.433Z,99448.35
2017-12-10T02:50:03.824Z,99441.78
2017-12-10T02:52:31.258Z,99441.00
2017-12-10T02:54:58.656Z,99438.29
2017-12-10T02:57:26.044Z,99435.85
2017-12-10T02:59:53.438Z,99425.98
2017-12-10T03:02:20.858Z,99422.23
2017-12-10T03:04:48.261Z,99417.19
2017-12-10T03:07:15.643Z,99413.28
2017-12-10T03:09:43.107Z,99414.41
2017-12-10T03:12:10.432Z,99411.71
2017-12-10T03:14:37.827Z,99408.36
2017-12-10T03:17:05.214Z,99407.63
2017-12-10T03:19:32.610Z,99408.56
2017-12-10T03:21:59.998Z,99408.22
2017-12-10T03:24:27.399Z,99401.78
2017-12-10T03:26:54.795Z,99402.21
2017-12-10T03:29:22.206Z,99394.81
2017-12-10T03:31:49.602Z,99381.50
2017-12-10T03:34:16.988Z,99384.48
2017-12-10T03:36:44.391Z,99375.23
2017-12-10T03:39:11.778Z,99366.42
2017-12-10T03:41:39.175Z,99355.97
2017-12-10T03:44:06.571Z,99357.80
2017-12-10T03:46:33.975Z,99360.86
2017-12-10T03:49:01.366Z,99354.28
2017-12-10T03:51:28.768Z,99350.06
2017-12-10T03:53:56.167Z,99346.30
2017-12-10T03:56:23.563Z,99346.77
2017-12-10T03:58:50.951Z,99346.28
2017-12-10T04:01:18.347Z,99336.00
2017-12-10T04:03:45.764Z,99337.75
2017-12-10T04:06:13.172Z,99326.07
2017-12-10T04:08:40.556Z,99324.88
2017-12-10T04:11:07.963Z,99317.27
2017-12-10T04:13:35.347Z,99315.36
2017-12-10T04:16:02.747Z,99312.22
2017-12-10T04:18:30.132Z,99306.91
2017-12-10T04:20:57.527Z,99304.96
2017-12-10T04:23:24.930Z,99303.75
2017-12-10T04:25:52.327Z,99305.89
2017-12-10T04:28:19.735Z,99296.28
2017-12-10T04:30:47.146Z,99289.59
2017-12-10T04:33:14.539Z,99284.70
2017-12-10T04:35:41.936Z,99279.47
2017-12-10T04:38:09.332Z,99277.37
2017-12-10T04:40:36.732Z,99282.09
2017-12-10T04:43:04.135Z,99273.06
2017-12-10T04:45:31.527Z,99264.64
2017-12-10T04:47:58.976Z,99268.74
2017-12-10T04:50:26.370Z,99256.20
2017-12-10T04:52:53.758Z,99248.59
2017-12-10T04:55:21.142Z,99250.55
2017-12-10T04:57:48.539Z,99252.23
2017-12-10T05:00:15.927Z,99245.39
2017-12-10T05:02:43.329Z,99236.64
2017-12-10T05:05:10.714Z,99235.45
2017-12-10T05:07:38.128Z,99224.20
2017-12-10T05:10:05.516Z,99227.92
2017-12-10T05:12:32.907Z,99223.14
2017-12-10T05:15:00.291Z,99219.73
2017-12-10T05:17:27.800Z,99224.72
2017-12-10T05:19:55.186Z,99216.35
2017-12-10T05:22:22.598Z,99207.56
2017-12-10T05:24:50.000Z,99206.05
2017-12-10T05:27:17.425Z,99203.50
2017-12-10T05:29:44.802Z,99205.16
2017-12-10T05:32:12.203Z,99189.31
2017-12-10T05:34:39.610Z,99188.16
2017-12-10T05:37:07.887Z,99184.05
2017-12-10T05:39:35.298Z,99175.61
2017-12-10T05:42:02.770Z,99168.78
2017-12-10T05:44:30.163Z,99160.44
2017-12-10T05:46:57.558Z,99155.09
2017-12-10T05:49:25.054Z,99153.52
2017-12-10T05:51:52.434Z,99140.05
2017-12-10T05:54:19.839Z,99141.34
2017-12-10T05:56:47.224Z,99134.06
2017-12-10T05:59:14.625Z,99122.10
2017-12-10T06:01:42.009Z,99119.33
2017-12-10T06:04:09.421Z,99127.14
2017-12-10T06:06:36.819Z,99114.99
2017-12-10T06:09:04.210Z,99115.45
2017-12-10T06:11:31.604Z,99104.19
2017-12-10T06:13:59.000Z,99094.31
2017-12-10T06:16:26.387Z,99074.46
2017-12-10T06:18:53.779Z,99067.55
2017-12-10T06:21:21.162Z,99060.22
2017-12-10T06:23:48.551Z,99053.95
2017-12-10T06:26:15.938Z,99053.93
2017-12-10T06:28:43.323Z,99041.83
2017-12-10T06:31:10.711Z,99033.12
2017-12-10T06:33:38.198Z,99034.75
2017-12-10T06:36:05.680Z,99027.30
2017-12-10T06:38:33.063Z,99020.17
2017-12-10T06:41:00.455Z,99003.84
2017-12-10T06:43:27.844Z,98994.13
2017-12-10T06:45:55.232Z,98992.61
2017-12-10T06:48:22.614Z,98984.47
2017-12-10T06:50:49.999Z,98986.52
2017-12-10T06:53:17.379Z,98986.05
2017-12-10T06:55:44.792Z,98981.68
2017-12-10T06:58:12.271Z,98968.79
2017-12-10T07:00:39.671Z,98962.44
2017-12-10T07:03:07.058Z,98960.65
2017-12-10T07:05:34.506Z,98957.78
2017-12-10T07:08:01.851Z,98945.88
2017-12-10T07:10:29.235Z,98939.61
2017-12-10T07:12:56.631Z,98934.03
2017-12-10T07:15:24.002Z,98936.69
2017-12-10T07:17:51.431Z,98934.76
2017-12-10T07:20:18.814Z,98926.23
2017-12-10T07:22:46.199Z,98922.25
2017-12-10T07:25:13.586Z,98920.09
2017-12-10T07:27:40.978Z,98918.24
2017-12-10T07:30:08.378Z,98913.28
2017-12-10T07:32:35.830Z,98907.83
2017-12-10T07:35:03.230Z,98900.31
2017-12-10T07:37:30.622Z,98892.00
2017-12-10T07:39:58.003Z,98880.65
2017-12-10T07:42:25.390Z,98880.13
2017-12-10T07:44:52.776Z,98885.83
2017-12-10T07:47:20.162Z,98880.65
2017-12-10T07:49:47.539Z,98884.36
2017-12-10T07:52:14.952Z,98869.22
2017-12-10T07:57:09.018Z,98873.09
2017-12-10T07:59:36.408Z,98866.95
2017-12-10T08:02:03.791Z,98867.50
2017-12-10T08:04:31.175Z,98868.65
2017-12-10T08:06:58.564Z,98861.34
2017-12-10T08:09:25.955Z,98854.49
2017-12-10T08:11:53.566Z,98842.82
2017-12-10T08:14:20.934Z,98833.05
2017-12-10T08:16:48.343Z,98828.83
2017-12-10T08:19:15.811Z,98821.05
2017-12-10T08:21:43.182Z,98807.22
2017-12-10T08:24:10.570Z,98803.19
2017-12-10T08:26:37.948Z,98787.40
2017-12-10T08:29:05.330Z,98792.80
2017-12-10T08:31:32.791Z,98793.87
2017-12-10T08:34:00.183Z,98796.23
2017-12-10T08:36:27.587Z,98780.45
2017-12-10T08:38:54.972Z,98771.98
2017-12-10T08:41:22.354Z,98770.59
2017-12-10T08:43:49.781Z,98757.08
2017-12-10T08:46:17.163Z,98744.42
2017-12-10T08:48:44.563Z,98732.21
2017-12-10T08:51:11.947Z,98730.88
2017-12-10T08:53:39.350Z,98722.48
2017-12-10T08:56:06.747Z,98714.24
2017-12-10T08:58:34.123Z,98702.74
2017-12-10T09:01:01.520Z,98695.84
2017-12-10T09:03:28.899Z,98686.91
2017-12-10T09:05:56.291Z,98681.39
2017-12-10T09:08:23.713Z,98671.28
2017-12-10T09:10:51.102Z,98661.84
2017-12-10T09:13:18.483Z,98657.91
2017-12-10T09:15:45.870Z,98644.24
2017-12-10T09:18:13.248Z,98643.95
2017-12-10T09:20:40.634Z,98632.23
2017-12-10T09:23:08.014Z,98624.98
2017-12-10T09:25:35.419Z,98616.30
2017-12-10T09:28:02.803Z,98613.17
2017-12-10T09:30:30.190Z,98608.11
2017-12-10T09:32:57.575Z,98596.98
2017-12-10T09:35:24.964Z,98592.60
2017-12-10T09:37:52.350Z,98584.92
2017-12-10T09:40:19.760Z,98575.31
2017-12-10T09:42:47.146Z,98573.40
2017-12-10T09:45:14.586Z,98566.47
2017-12-10T09:47:41.967Z,98551.80
2017-12-10T09:50:09.359Z,98546.05
2017-12-10T09:52:37.534Z,98538.83
2017-12-10T09:55:05.026Z,98529.39
2017-12-10T09:57:32.406Z,98526.42
2017-12-10T09:59:59.836Z,98515.01
2017-12-10T10:02:27.206Z,98505.25
2017-12-10T10:04:54.587Z,98496.64
2017-12-10T10:07:21.990Z,98482.74
2017-12-10T10:09:49.363Z,98473.50
2017-12-10T10:12:16.754Z,98468.27
2017-12-10T10:14:44.126Z,98457.73
2017-12-10T10:17:11.515Z,98447.89
2017-12-10T10:19:38.886Z,98436.75
2017-12-10T10:22:06.281Z,98415.83
2017-12-10T10:24:33.659Z,98410.67
2017-12-10T10:27:01.055Z,98405.19
2017-12-10T10:29:28.444Z,98393.05
2017-12-10T10:31:55.842Z,98377.86
2017-12-10T10:34:23.247Z,98370.59
2017-12-10T10:36:50.636Z,98368.73
2017-12-10T10:39:18.029Z,98370.71
2017-12-10T10:41:45.411Z,98358.78
2017-12-10T10:44:12.786Z,98333.44
2017-12-10T10:46:40.191Z,98322.08
2017-12-10T10:49:07.576Z,98309.98
2017-12-10T10:51:34.955Z,98301.13
2017-12-10T10:54:02.355Z,98294.53
2017-12-10T10:56:29.743Z,98282.31
2017-12-10T10:58:57.186Z,98272.21
2017-12-10T11:01:24.524Z,98264.09
2017-12-10T11:03:51.972Z,98254.11
2017-12-10T11:06:19.290Z,98246.39
2017-12-10T11:08:46.679Z,98226.58
2017-12-10T11:11:14.059Z,98228.05
2017-12-10T11:13:41.456Z,98222.05
2017-12-10T11:16:08.835Z,98209.23
2017-12-10T11:18:36.370Z,98195.63
2017-12-10T11:21:03.746Z,98196.02
2017-12-10T11:23:31.150Z,98198.41
2017-12-10T11:25:58.538Z,98175.38
2017-12-10T11:28:25.911Z,98167.76
2017-12-10T11:30:53.308Z,98166.81
2017-12-10T11:33:20.691Z,98155.91
2017-12-10T11:35:48.176Z,98155.00
2017-12-10T11:38:15.555Z,98145.53
2017-12-10T11:40:42.952Z,98130.36
2017-12-10T11:43:10.327Z,98119.16
2017-12-10T11:45:37.711Z,98109.26
2017-12-10T11:48:05.095Z,98105.67
2017-12-10T11:50:32.477Z,98093.81
2017-12-10T11:52:59.859Z,98087.66
2017-12-10T11:55:27.246Z,98082.39
2017-12-10T11:57:54.634Z,98066.72
2017-12-10T12:00:22.015Z,98048.49
2017-12-10T12:02:49.402Z,98037.41
2017-12-10T12:05:17.673Z,98034.94
2017-12-10T12:07:45.063Z,98020.45
2017-12-10T12:10:12.562Z,98018.70
2017-12-10T12:12:39.970Z,98011.02
2017-12-10T12:15:07.369Z,98002.34
2017-12-10T12:17:34.782Z,97994.59
2017-12-10T12:20:02.150Z,97979.53
2017-12-10T12:22:29.549Z,97977.99
2017-12-10T12:24:56.923Z,97963.38
2017-12-10T12:27:24.312Z,97944.45
2017-12-10T12:29:51.694Z,97936.64
2017-12-10T12:32:19.126Z,97942.02
2017-12-10T12:34:46.454Z,97928.72
2017-12-10T12:37:18.695Z,97899.97
2017-12-10T12:39:46.066Z,97894.69
2017-12-10T12:42:13.497Z,97895.34
2017-12-10T12:44:40.881Z,97879.30
2017-12-10T12:47:08.270Z,97877.03
2017-12-10T12:49:35.658Z,97871.92
2017-12-10T12:52:03.043Z,97871.33
2017-12-10T12:54:30.431Z,97871.58
2017-12-10T12:56:57.824Z,97871.84
2017-12-10T12:59:25.268Z,97853.00
2017-12-10T13:01:52.600Z,97845.34
2017-12-10T13:04:19.992Z,97838.28
2017-12-10T13:06:47.383Z,97834.30
2017-12-10T13:09:14.763Z,97826.48
2017-12-10T13:11:42.168Z,97816.03
2017-12-10T13:14:09.554Z,97816.13
2017-12-10T13:16:36.936Z,97797.57
2017-12-10T13:19:04.331Z,97787.58
2017-12-10T13:21:31.716Z,97747.35
2017-12-10T13:23:59.115Z,97758.45
2017-12-10T13:26:26.499Z,97753.07
2017-12-10T13:28:53.879Z,97759.75
2017-12-10T13:31:21.260Z,97762.04
2017-12-10T13:33:48.650Z,97744.53
2017-12-10T13:36:16.034Z,97737.47
2017-12-10T13:38:43.431Z,97740.20
2017-12-10T13:41:10.806Z,97724.77
2017-12-10T13:43:38.197Z,97717.83
2017-12-10T13:46:05.611Z,97713.78
2017-12-10T13:48:33.064Z,97700.78
2017-12-10T13:51:00.500Z,97708.52
2017-12-10T13:53:27.835Z,97711.66
2017-12-10T13:55:55.216Z,97696.45
2017-12-10T13:58:22.598Z,97707.92
2017-12-10T14:00:49.975Z,97711.09
2017-12-10T14:03:17.362Z,97719.16
2017-12-10T14:05:44.763Z,97721.50
2017-12-10T14:08:12.163Z,97726.05
2017-12-10T14:10:39.563Z,97728.23
2017-12-10T14:13:06.943Z,97730.38
2017-12-10T14:15:34.330Z,97729.14
2017-12-10T14:18:01.720Z,97729.98
2017-12-10T14:20:29.117Z,97736.53
2017-12-10T14:22:57.078Z,97733.61
2017-12-10T14:25:24.480Z,97720.41
2017-12-10T14:27:51.855Z,97718.67
2017-12-10T14:30:19.243Z,97711.56
2017-12-10T14:32:46.739Z,97710.98
2017-12-10T14:35:14.135Z,97696.77
2017-12-10T14:37:41.522Z,97688.06
2017-12-10T14:40:08.908Z,97682.30
2017-12-10T14:45:10.202Z,97662.53
2017-12-10T14:47:37.595Z,97662.55
2017-12-10T14:50:04.984Z,97653.69
2017-12-10T14:52:32.363Z,97650.25
2017-12-10T14:54:59.754Z,97630.92
2017-12-10T14:57:27.145Z,97620.27
2017-12-10T14:59:54.536Z,97617.58
2017-12-10T15:02:21.919Z,97611.39
2017-12-10T15:04:49.398Z,97603.11
2017-12-10T15:07:16.787Z,97596.68
2017-12-10T15:09:44.171Z,97589.06
2017-12-10T15:12:11.555Z,97578.89
2017-12-10T15:14:38.933Z,97568.64
2017-12-10T15:17:06.332Z,97556.72
2017-12-10T15:19:33.711Z,97537.45
2017-12-10T15:22:01.094Z,97525.45
2017-12-10T15:24:28.530Z,97526.65
2017-12-10T15:26:55.911Z,97505.54
2017-12-10T15:29:23.291Z,97502.47
2017-12-10T15:31:50.682Z,97490.67
2017-12-10T15:34:18.070Z,97483.75
2017-12-10T15:36:45.476Z,97473.48
2017-12-10T15:39:12.867Z,97464.55
2017-12-10T15:41:40.283Z,97456.88
2017-12-10T15:44:07.880Z,97451.16
2017-12-10T15:46:35.270Z,97441.96
2017-12-10T15:49:02.655Z,97440.19
2017-12-10T15:51:30.050Z,97439.27
2017-12-10T15:53:57.427Z,97433.52
2017-12-10T15:56:24.944Z,97429.20
2017-12-10T15:58:52.318Z,97423.55
2017-12-10T16:01:19.700Z,97413.41
2017-12-10T16:03:47.086Z,97396.27
2017-12-10T16:06:14.459Z,97393.19
2017-12-10T16:08:41.858Z,97389.05
2017-12-10T16:11:09.234Z,97381.02
2017-12-10T16:13:36.674Z,97381.89
2017-12-10T16:16:04.060Z,97367.31
2017-12-10T16:18:31.451Z,97358.31
2017-12-10T16:20:58.836Z,97355.91
2017-12-10T16:23:26.232Z,97344.89
2017-12-10T16:25:54.033Z,97336.22
2017-12-10T16:28:21.431Z,97327.39
2017-12-10T16:30:48.815Z,97323.81
2017-12-10T16:33:16.213Z,97309.93
2017-12-10T16:35:43.603Z,97305.06
2017-12-10T16:38:10.999Z,97296.88
2017-12-10T16:40:38.380Z,97293.58
2017-12-10T16:43:05.786Z,97287.63
2017-12-10T16:45:33.158Z,97282.28
2017-12-10T16:48:00.546Z,97271.31
2017-12-10T16:50:27.930Z,97270.95
2017-12-10T16:52:55.316Z,97259.27
2017-12-10T16:55:22.704Z,97247.63
2017-12-10T16:57:50.103Z,97241.08
2017-12-10T17:00:17.482Z,97240.19
2017-12-10T17:02:44.981Z,97236.67
2017-12-10T17:05:12.356Z,97237.14
2017-12-10T17:07:39.729Z,97236.43
2017-12-10T17:10:07.127Z,97227.20
2017-12-10T17:12:34.511Z,97225.13
2017-12-10T17:15:01.899Z,97224.03
2017-12-10T17:17:29.277Z,97214.47
2017-12-10T17:22:30.519Z,97206.09
2017-12-10T17:24:57.913Z,97202.72
2017-12-10T17:27:25.410Z,97194.39
2017-12-10T17:29:52.794Z,97191.52
2017-12-10T17:32:20.275Z,97191.45
2017-12-10T17:34:47.670Z,97174.78
2017-12-10T17:37:15.083Z,97187.00
2017-12-10T17:39:42.471Z,97184.09
2017-12-10T17:42:09.871Z,97172.97
2017-12-10T17:44:37.276Z,97170.38
2017-12-10T17:47:04.708Z,97161.33
2017-12-10T17:49:32.107Z,97173.41
2017-12-10T17:51:59.482Z,97152.42
2017-12-10T17:54:26.874Z,97152.38
2017-12-10T17:56:54.259Z,97149.75
2017-12-10T17:59:21.664Z,97151.70
2017-12-10T18:01:49.050Z,97141.88
2017-12-10T18:04:16.492Z,97134.56
2017-12-10T18:06:43.871Z,97135.89
2017-12-10T18:09:11.258Z,97128.52
2017-12-10T18:11:38.639Z,97125.45
2017-12-10T18:14:06.112Z,97116.81
2017-12-10T18:16:33.495Z,97115.92
2017-12-10T18:19:00.888Z,97112.03
2017-12-10T18:21:28.334Z,97106.23
2017-12-10T18:23:55.732Z,97108.11
2017-12-10T18:26:23.178Z,97102.86
2017-12-10T18:28:50.571Z,97092.55
2017-12-10T18:31:17.958Z,97084.94
2017-12-10T18:33:45.355Z,97084.30
2017-12-10T18:36:12.739Z,97077.53
2017-12-10T18:38:40.130Z,97074.98
2017-12-10T18:41:07.534Z,97069.11
2017-12-10T18:43:34.962Z,97069.52
2017-12-10T18:46:02.348Z,97074.23
2017-12-10T18:48:29.730Z,97064.91
2017-12-10T18:50:57.118Z,97068.94
2017-12-10T18:53:25.031Z,97054.77
2017-12-10T18:55:52.458Z,97051.13
2017-12-10T18:58:19.843Z,97050.11
2017-12-10T19:00:47.272Z,97039.32
2017-12-10T19:03:14.654Z,97035.61
2017-12-10T19:05:42.056Z,97035.91
2017-12-10T19:08:09.455Z,97034.16
2017-12-10T19:10:36.838Z,97024.43
2017-12-10T19:13:04.227Z,97023.48
2017-12-10T19:15:31.623Z,97023.00
2017-12-10T19:17:59.001Z,97016.52
2017-12-10T19:20:26.394Z,97010.82
2017-12-10T19:22:53.776Z,97008.23
2017-12-10T19:25:21.171Z,96999.86
2017-12-10T19:27:48.559Z,96992.19
2017-12-10T19:30:15.958Z,96988.36
2017-12-10T19:32:43.342Z,96976.56
2017-12-10T19:35:10.715Z,96978.38
2017-12-10T19:37:38.106Z,96977.57
2017-12-10T19:40:05.486Z,96982.80
2017-12-10T19:42:32.885Z,96974.13
2017-12-10T19:45:00.288Z,96980.86
2017-12-10T19:47:27.670Z,96974.20
2017-12-10T19:49:55.050Z,96975.80
2017-12-10T19:52:22.444Z,96973.20
2017-12-10T19:54:50.084Z,96961.47
2017-12-10T19:57:17.551Z,96956.66
2017-12-10T19:59:44.944Z,96944.39
2017-12-10T20:02:12.404Z,96947.63
2017-12-10T20:04:39.818Z,96957.00
2017-12-10T20:07:07.210Z,96960.35
2017-12-10T20:09:34.591Z,96955.30
2017-12-10T20:12:01.998Z,96958.47
2017-12-10T20:14:29.388Z,96965.81
2017-12-10T20:16:56.780Z,96962.61
2017-12-10T20:19:24.176Z,96951.45
2017-12-10T20:21:51.564Z,96945.91
2017-12-10T20:24:18.979Z,96934.71
2017-12-10T20:26:46.375Z,96931.16
2017-12-10T20:29:13.760Z,96918.14
2017-12-10T20:31:41.150Z,96918.44
2017-12-10T20:34:08.531Z,96922.95
2017-12-10T20:36:35.918Z,96913.31
2017-12-10T20:39:03.306Z,96917.08
2017-12-10T20:41:30.692Z,96930.55
2017-12-10T20:43:58.084Z,96933.84
2017-12-10T20:46:25.462Z,96928.89
2017-12-10T20:48:52.856Z,96937.36
2017-12-10T20:51:20.295Z,96931.47
2017-12-10T20:53:47.683Z,96933.00
2017-12-10T20:56:15.140Z,96915.18
2017-12-10T20:58:42.543Z,96917.06
2017-12-10T21:01:09.922Z,96917.93
2017-12-10T21:03:37.316Z,96915.13
2017-12-10T21:06:04.712Z,96909.68
2017-12-10T21:08:32.101Z,96911.08
2017-12-10T21:10:59.485Z,96906.89
2017-12-10T21:13:26.875Z,96910.55
2017-12-10T21:15:54.246Z,96896.60
2017-12-10T21:18:21.631Z,96898.59
2017-12-10T21:20:49.015Z,96899.08
2017-12-10T21:23:16.411Z,96901.69
2017-12-10T21:25:43.855Z,96900.28
2017-12-10T21:28:11.239Z,96894.19
2017-12-10T21:30:38.623Z,96886.25
2017-12-10T21:33:06.011Z,96890.45
2017-12-10T21:35:33.382Z,96881.61
2017-12-10T21:38:00.782Z,96891.82
2017-12-10T21:40:28.167Z,96884.25
2017-12-10T21:42:55.547Z,96883.98
2017-12-10T21:45:22.933Z,96872.86
2017-12-10T21:47:50.306Z,96863.36
2017-12-10T21:50:17.694Z,96867.84
2017-12-10T21:52:45.081Z,96869.88
2017-12-10T21:55:12.463Z,96865.97
2017-12-10T21:57:39.859Z,96851.98
2017-12-10T22:00:07.268Z,96857.42
2017-12-10T22:02:34.652Z,96857.11
2017-12-10T22:05:02.030Z,96851.23
2017-12-10T22:07:29.418Z,96861.37
2017-12-10T22:09:56.798Z,96851.54
2017-12-10T22:12:24.295Z,96842.17
2017-12-10T22:14:51.967Z,96829.91
2017-12-10T22:17:19.354Z,96820.61
2017-12-10T22:19:46.742Z,96826.88
2017-12-10T22:22:14.114Z,96817.38
2017-12-10T22:24:41.504Z,96821.96
2017-12-10T22:27:08.887Z,96818.69
2017-12-10T22:29:36.274Z,96823.53
2017-12-10T22:32:03.657Z,96816.43
2017-12-10T22:34:31.042Z,96802.15
2017-12-10T22:36:58.547Z,96811.45
2017-12-10T22:39:25.931Z,96800.78
2017-12-10T22:41:53.308Z,96794.38
2017-12-10T22:44:20.699Z,96792.04
2017-12-10T22:46:48.079Z,96797.53
2017-12-10T22:49:15.456Z,96799.53
2017-12-10T22:51:42.841Z,96797.73
2017-12-10T22:54:10.223Z,96803.02
2017-12-10T22:56:37.612Z,96810.56
2017-12-10T22:59:04.987Z,96809.51
2017-12-10T23:01:32.420Z,96827.12
2017-12-10T23:03:59.791Z,96857.48
2017-12-10T23:06:27.258Z,96850.08
2017-12-10T23:08:54.635Z,96895.25
2017-12-10T23:11:22.022Z,96861.39
2017-12-10T23:13:50.966Z,96866.23
2017-12-10T23:16:32.108Z,96867.74
2017-12-10T23:18:59.495Z,96864.23
2017-12-10T23:21:26.873Z,96868.19
2017-12-10T23:23:54.250Z,96867.48
2017-12-10T23:26:21.638Z,96867.70
2017-12-10T23:28:49.038Z,96869.78
2017-12-10T23:31:16.423Z,96871.55
2017-12-10T23:33:43.824Z,96868.27
2017-12-10T23:36:11.222Z,96872.05
2017-12-10T23:38:38.602Z,96875.35
2017-12-10T23:41:06.039Z,96879.27
2017-12-10T23:43:33.424Z,96889.59
2017-12-10T23:46:00.815Z,96895.89
2017-12-10T23:48:28.307Z,96891.94
2017-12-10T23:50:55.759Z,96901.88
2017-12-10T23:53:23.221Z,96903.71
2017-12-10T23:55:50.605Z,96904.84
2017-12-10T23:58:17.997Z,96909.14
